createdAt,value
2017-07-21T00:00:02.986Z,58.28
2017-07-21T00:05:03.041Z,58.28
2017-07-21T00:10:03.548Z,58.09
2017-07-21T00:15:02.976Z,58.09
2017-07-21T00:20:03.352Z,57.99
2017-07-21T00:25:02.764Z,58.09
2017-07-21T00:30:03.214Z,57.87
2017-07-21T00:35:03.503Z,57.58
2017-07-21T00:40:02.992Z,57.48
2017-07-21T00:45:03.305Z,57.39
2017-07-21T00:50:03.569Z,57.29
2017-07-21T00:55:02.825Z,57.01
2017-07-21T01:00:03.266Z,57.01
2017-07-21T01:05:02.631Z,56.82
2017-07-21T01:10:03.100Z,56.82
2017-07-21T01:15:03.515Z,56.82
2017-07-21T01:20:02.881Z,56.5
2017-07-21T01:25:03.159Z,56.5
2017-07-21T01:30:02.629Z,56.4
2017-07-21T01:35:02.931Z,56.31
2017-07-21T01:40:03.370Z,56.21
2017-07-21T01:45:02.797Z,56.21
2017-07-21T01:50:03.283Z,56.21
2017-07-21T01:55:02.615Z,56.21
2017-07-21T02:00:03.047Z,55.93
2017-07-21T02:05:03.374Z,55.99
2017-07-21T02:10:02.757Z,55.99
2017-07-21T02:15:03.037Z,56.09
2017-07-21T02:20:03.453Z,56.18
2017-07-21T02:25:02.870Z,56.47
2017-07-21T02:30:03.295Z,56.76
2017-07-21T02:35:02.744Z,57.24
2017-07-21T02:40:03.238Z,57.78
2017-07-21T02:45:03.605Z,58.54
2017-07-21T02:50:02.901Z,59.12
2017-07-21T02:55:03.311Z,59.59
2017-07-21T03:00:02.674Z,59.88
2017-07-21T03:05:03.034Z,60.55
2017-07-21T03:10:03.510Z,60.74
2017-07-21T03:15:02.776Z,61.29
2017-07-21T03:20:03.121Z,61.66
2017-07-21T03:25:03.391Z,62.05
2017-07-21T03:30:02.662Z,63.2
2017-07-21T03:35:03.103Z,63.96
2017-07-21T03:40:03.452Z,64.15
2017-07-21T03:45:02.848Z,64.43
2017-07-21T03:50:03.140Z,64.91
2017-07-21T03:55:03.580Z,65.58
2017-07-21T04:00:03.244Z,66.25
2017-07-21T04:05:03.590Z,66.53
2017-07-21T04:10:03.001Z,67.07
2017-07-21T04:15:03.461Z,67.17
2017-07-21T04:20:02.777Z,67.27
2017-07-21T04:25:03.041Z,67.27
2017-07-21T04:30:02.743Z,67.36
2017-07-21T04:35:03.030Z,67.17
2017-07-21T04:40:03.544Z,68.03
2017-07-21T04:45:02.794Z,68.35
2017-07-21T04:50:03.134Z,68.73
2017-07-21T04:55:03.597Z,68.92
2017-07-21T05:00:02.985Z,69.31
2017-07-21T05:05:03.447Z,70.2
2017-07-21T05:10:02.897Z,71.15
2017-07-21T05:15:03.233Z,71.53
2017-07-21T05:20:02.781Z,71.57
2017-07-21T05:25:03.396Z,72.62
2017-07-21T05:30:02.895Z,72.28
2017-07-21T05:35:03.439Z,73.52
2017-07-21T05:40:02.936Z,75.66
2017-07-21T05:45:03.271Z,76.9
2017-07-21T05:50:02.647Z,74.7
2017-07-21T05:55:03.071Z,76.04
2017-07-21T06:00:03.514Z,74.8
2017-07-21T06:05:03.000Z,75.09
2017-07-21T06:10:03.370Z,75.95
2017-07-21T06:15:02.673Z,76.75
2017-07-21T06:20:03.171Z,78.03
2017-07-21T06:25:02.637Z,80.76
2017-07-21T06:30:02.978Z,82.62
2017-07-21T06:35:03.585Z,86.07
2017-07-21T06:40:02.888Z,85.82
2017-07-21T06:45:03.319Z,89.85
2017-07-21T06:50:02.830Z,89.61
2017-07-21T06:55:03.136Z,87.92
2017-07-21T07:00:03.600Z,91.96
2017-07-21T07:05:03.075Z,89.12
2017-07-21T07:10:03.438Z,91.75
2017-07-21T07:15:02.864Z,95.65
2017-07-21T07:20:03.158Z,95.26
2017-07-21T07:25:03.620Z,97.62
2017-07-21T07:30:03.084Z,99.64
2017-07-21T07:35:03.545Z,99.99
2017-07-21T07:40:02.817Z,99.99
2017-07-21T07:45:03.258Z,99.99
2017-07-21T07:50:02.616Z,99.99
2017-07-21T07:55:02.927Z,99.99
2017-07-21T08:00:03.401Z,99.99
2017-07-21T08:05:02.825Z,99.99
2017-07-21T08:10:03.182Z,98.34
2017-07-21T08:15:03.515Z,98.97
2017-07-21T08:20:02.869Z,96.7
2017-07-21T08:25:03.193Z,91.01
2017-07-21T08:30:02.674Z,90.77
2017-07-21T08:35:03.031Z,85.64
2017-07-21T08:40:02.673Z,85.69
2017-07-21T08:45:03.123Z,86.17
2017-07-21T08:50:02.662Z,82.45
2017-07-21T08:55:02.962Z,79.68
2017-07-21T09:00:03.401Z,77.45
2017-07-21T09:05:02.794Z,71.88
2017-07-21T09:10:03.311Z,73.27
2017-07-21T09:15:02.617Z,71.44
2017-07-21T09:20:02.968Z,67.24
2017-07-21T09:25:03.306Z,67.14
2017-07-21T09:30:02.677Z,64.85
2017-07-21T09:35:02.992Z,62.23
2017-07-21T09:40:03.485Z,62.91
2017-07-21T09:45:02.909Z,62.91
2017-07-21T09:50:03.357Z,62.13
2017-07-21T09:55:02.657Z,59.58
2017-07-21T10:00:03.105Z,57.97
2017-07-21T10:05:03.579Z,59.52
2017-07-21T10:10:02.910Z,60.64
2017-07-21T10:15:03.255Z,59.38
2017-07-21T10:20:02.727Z,58.93
2017-07-21T10:25:03.160Z,58.39
2017-07-21T10:30:03.492Z,57.75
2017-07-21T10:35:02.928Z,59.06
2017-07-21T10:40:03.435Z,58
2017-07-21T10:45:02.725Z,58.87
2017-07-21T10:50:03.089Z,59.55
2017-07-21T10:55:03.541Z,59.33
2017-07-21T11:00:02.816Z,59.36
2017-07-21T11:05:03.138Z,57.89
2017-07-21T11:15:03.487Z,56.75
2017-07-21T11:20:02.758Z,56.24
2017-07-21T11:25:03.047Z,57.37
2017-07-21T11:30:03.600Z,56.7
2017-07-21T11:35:02.917Z,57.93
2017-07-21T11:40:03.424Z,56.62
2017-07-21T11:45:02.825Z,54.8
2017-07-21T11:50:03.237Z,55.88
2017-07-21T11:55:03.502Z,55.83
2017-07-21T12:00:02.886Z,54.18
2017-07-21T12:05:03.215Z,55.27
2017-07-21T12:10:03.595Z,52.02
2017-07-21T12:15:03.007Z,53.18
2017-07-21T12:20:03.473Z,54.79
2017-07-21T12:25:02.912Z,55.27
2017-07-21T12:30:03.273Z,54.28
2017-07-21T12:35:02.719Z,54.52
2017-07-21T12:40:03.063Z,54.52
2017-07-21T12:45:03.289Z,55.96
2017-07-21T12:50:03.627Z,54.13
2017-07-21T12:55:02.874Z,53.6
2017-07-21T13:00:03.211Z,52.83
2017-07-21T13:05:02.769Z,53.99
2017-07-21T13:10:03.237Z,53.25
2017-07-21T13:15:02.745Z,54.15
2017-07-21T13:20:03.127Z,54.03
2017-07-21T13:25:02.603Z,54.69
2017-07-21T13:30:03.056Z,52.53
2017-07-21T13:35:03.583Z,53.23
2017-07-21T13:40:03.048Z,53.18
2017-07-21T13:45:03.477Z,53.47
2017-07-21T13:50:02.985Z,54.44
2017-07-21T13:55:03.295Z,54.4
2017-07-21T14:00:03.627Z,53.69
2017-07-21T14:05:03.139Z,53.48
2017-07-21T14:10:02.707Z,53.87
2017-07-21T14:15:03.133Z,53.42
2017-07-21T14:20:02.741Z,53.48
2017-07-21T14:25:03.058Z,52.73
2017-07-21T14:30:03.406Z,52.6
2017-07-21T14:35:02.808Z,53.52
2017-07-21T14:40:03.284Z,53.91
2017-07-21T14:45:02.653Z,53.99
2017-07-21T14:50:03.014Z,53.52
2017-07-21T14:55:03.343Z,53.58
2017-07-21T15:00:02.772Z,52.83
2017-07-21T15:05:03.136Z,52.53
2017-07-21T15:10:03.448Z,52.95
2017-07-21T15:15:02.917Z,52.39
2017-07-21T15:20:03.224Z,52.85
2017-07-21T15:25:02.679Z,52.73
2017-07-21T15:30:03.165Z,53.52
2017-07-21T15:35:03.517Z,54.33
2017-07-21T15:40:03.010Z,53.04
2017-07-21T15:45:03.553Z,54.15
2017-07-21T15:50:02.873Z,55.13
2017-07-21T15:55:03.360Z,55.05
2017-07-21T16:00:02.826Z,54.4
2017-07-21T16:05:03.383Z,54.33
2017-07-21T16:10:02.873Z,54.33
2017-07-21T16:15:03.195Z,54.69
2017-07-21T16:20:03.561Z,54.99
2017-07-21T16:25:03.017Z,55.15
2017-07-21T16:30:03.317Z,55.71
2017-07-21T16:35:02.611Z,55.61
2017-07-21T16:40:03.075Z,56.68
2017-07-21T16:45:03.531Z,57.07
2017-07-21T16:50:02.962Z,57.04
2017-07-21T16:55:03.226Z,56.85
2017-07-21T17:00:02.653Z,56.65
2017-07-21T17:05:02.965Z,56.56
2017-07-21T17:10:03.299Z,57.69
2017-07-21T17:15:02.678Z,58.08
2017-07-21T17:20:03.106Z,58.25
2017-07-21T17:25:03.594Z,58.34
2017-07-21T17:30:02.873Z,58.61
2017-07-21T17:35:03.235Z,59.19
2017-07-21T17:40:02.686Z,59.84
2017-07-21T17:45:03.137Z,60.23
2017-07-21T17:50:03.579Z,60.71
2017-07-21T17:55:02.996Z,61.75
2017-07-21T18:00:03.464Z,61.94
2017-07-21T18:05:02.692Z,62.3
2017-07-21T18:10:03.227Z,63.17
2017-07-21T18:15:03.551Z,64.01
2017-07-21T18:20:03.043Z,64.4
2017-07-21T18:25:03.331Z,65.14
2017-07-21T18:30:02.713Z,66.11
2017-07-21T18:35:03.073Z,67.24
2017-07-21T18:40:03.517Z,68.49
2017-07-21T18:45:02.894Z,69.14
2017-07-21T18:50:03.376Z,69.88
2017-07-21T18:55:02.803Z,70.65
2017-07-21T19:00:03.206Z,71.97
2017-07-21T19:05:03.623Z,73.03
2017-07-21T19:10:02.941Z,74.16
2017-07-21T19:15:03.402Z,75.22
2017-07-21T19:20:02.928Z,77.4
2017-07-21T19:25:03.198Z,79.04
2017-07-21T19:30:03.522Z,80.64
2017-07-21T19:35:03.011Z,82.76
2017-07-21T19:40:03.429Z,84.94
2017-07-21T19:45:02.872Z,87.93
2017-07-21T19:50:03.246Z,89.72
2017-07-21T19:55:03.569Z,91.36
2017-07-21T20:00:02.876Z,92.71
2017-07-21T20:05:03.158Z,94.39
2017-07-21T20:10:03.466Z,95.16
2017-07-21T20:15:02.819Z,95.84
2017-07-21T20:20:03.305Z,96.42
2017-07-21T20:25:03.564Z,96.85
2017-07-21T20:30:02.906Z,97.04
2017-07-21T20:35:03.387Z,97.24
2017-07-21T20:40:02.710Z,97.42
2017-07-21T20:45:03.112Z,97.47
2017-07-21T20:50:03.593Z,97.67
2017-07-21T20:55:02.986Z,97.67
2017-07-21T21:00:03.229Z,97.67
2017-07-21T21:05:02.626Z,97.52
2017-07-21T21:10:02.977Z,97.71
2017-07-21T21:15:02.808Z,97.71
2017-07-21T21:20:03.111Z,97.71
2017-07-21T21:25:03.566Z,97.71
2017-07-21T21:30:03.207Z,97.62
2017-07-21T21:35:02.601Z,97.57
2017-07-21T21:40:03.048Z,97.47
2017-07-21T21:45:03.510Z,97.38
2017-07-21T21:50:02.906Z,97.28
2017-07-21T21:55:03.241Z,97.09
2017-07-21T22:00:02.694Z,97.09
2017-07-21T22:05:02.975Z,96.9
2017-07-21T22:10:03.410Z,96.9
2017-07-21T22:15:02.826Z,96.8
2017-07-21T22:20:03.363Z,96.66
2017-07-21T22:25:02.867Z,96.66
2017-07-21T22:30:03.274Z,96.56
2017-07-21T22:35:02.679Z,96.56
2017-07-21T22:40:03.093Z,96.27
2017-07-21T22:45:03.486Z,96.27
2017-07-21T22:50:02.945Z,96.17
2017-07-21T22:55:03.352Z,96.17
2017-07-21T23:00:03.066Z,95.98
2017-07-21T23:05:03.298Z,95.89
2017-07-21T23:10:02.820Z,95.89
2017-07-21T23:15:03.317Z,95.79
2017-07-21T23:20:02.779Z,95.7
2017-07-21T23:25:03.200Z,95.6
2017-07-21T23:30:02.782Z,95.6
2017-07-21T23:35:03.108Z,95.4
2017-07-21T23:40:03.606Z,95.12
2017-07-21T23:45:03.001Z,94.64
2017-07-21T23:50:03.469Z,94.45
2017-07-21T23:55:02.837Z,94.26
